Time;durP1;ratioP1;P1;durP2;ratioP2;P2;SDS_P1;SDS_P2;PMS_P1;PMS_P2;Temp;Humidity;BMP_temperature;BMP_pressure;BME280_temperature;BME280_humidity;BME280_pressure;Samples;Min_cycle;Max_cycle;Signal;HPM_P1;HPM_P2
2022/08/23 00:01:25;;;;;;;5.38;1.75;;;18.50;96.40;;;;;;4991591;28;20216;-88
2022/08/23 00:03:53;;;;;;;3.10;1.63;;;18.50;96.60;;;;;;4991679;28;20608;-89
2022/08/23 00:06:21;;;;;;;6.38;1.58;;;18.40;96.50;;;;;;5006188;28;20237;-88
2022/08/23 00:08:49;;;;;;;3.67;1.88;;;18.50;96.60;;;;;;4996368;28;20191;-88
2022/08/23 00:11:38;;;;;;;4.40;1.40;;;18.30;96.80;;;;;;4994433;28;20778;-89
2022/08/23 00:14:09;;;;;;;3.65;1.70;;;18.20;96.90;;;;;;4994540;28;20202;-88
2022/08/23 00:16:36;;;;;;;5.88;1.52;;;18.20;96.80;;;;;;4994317;28;20191;-88
2022/08/23 00:19:06;;;;;;;3.63;1.40;;;18.30;97.00;;;;;;4994820;28;20662;-88
2022/08/23 00:21:32;;;;;;;4.40;1.60;;;18.30;97.00;;;;;;4994491;28;20290;-88
2022/08/23 00:23:58;;;;;;;3.65;1.60;;;18.30;97.00;;;;;;5002434;28;20179;-88
2022/08/23 00:26:24;;;;;;;3.40;1.67;;;18.20;97.10;;;;;;4994551;28;20182;-88
2022/08/23 00:28:51;;;;;;;2.63;1.55;;;18.20;97.50;;;;;;5002574;28;20183;-89
2022/08/23 00:31:18;;;;;;;1.83;1.38;;;18.00;97.70;;;;;;4998745;28;20238;-88
2022/08/23 00:33:44;;;;;;;2.85;1.63;;;17.90;97.80;;;;;;5010646;28;20194;-88
2022/08/23 00:36:10;;;;;;;3.15;1.70;;;17.90;98.10;;;;;;5011618;28;20187;-88
2022/08/23 00:38:36;;;;;;;5.00;1.63;;;17.80;98.20;;;;;;5009722;28;20675;-89
2022/08/23 00:41:02;;;;;;;2.80;1.70;;;17.80;98.50;;;;;;4993785;28;20691;-88
2022/08/23 00:49:16;;;;;;;4.18;1.70;;;17.90;98.70;;;;;;5012100;28;20189;-88
2022/08/23 00:51:47;;;;;;;11.05;1.80;;;17.90;98.70;;;;;;4988925;28;20262;-89
2022/08/23 00:54:15;;;;;;;6.07;1.58;;;17.90;98.90;;;;;;4991509;28;20195;-89
2022/08/23 00:56:41;;;;;;;2.70;2.00;;;17.80;99.10;;;;;;4994109;28;20733;-89
2022/08/23 00:59:07;;;;;;;4.18;1.70;;;17.80;99.30;;;;;;4993618;28;20195;-88
2022/08/23 01:01:33;;;;;;;4.85;2.58;;;17.90;99.30;;;;;;4993805;28;20569;-88
2022/08/23 01:04:00;;;;;;;3.20;1.70;;;17.90;99.10;;;;;;4999162;28;20187;-89
2022/08/23 01:06:42;;;;;;;4.65;1.67;;;17.90;98.90;;;;;;5000271;28;20346;-88
2022/08/23 01:09:14;;;;;;;6.00;1.48;;;17.90;98.80;;;;;;5003997;28;20249;-89
2022/08/23 01:11:59;;;;;;;4.80;2.00;;;17.90;99.10;;;;;;5000469;28;20527;-88
2022/08/23 01:14:28;;;;;;;3.22;1.80;;;17.90;99.20;;;;;;4993464;28;20191;-89
2022/08/23 01:17:40;;;;;;;5.50;2.00;;;17.90;99.30;;;;;;5013178;28;20232;-88
2022/08/23 01:20:12;;;;;;;5.68;2.05;;;17.80;99.20;;;;;;4943915;29;20242;-89
2022/08/23 01:22:48;;;;;;;2.90;1.50;;;17.70;99.60;;;;;;4969836;28;20219;-88
2022/08/23 01:25:20;;;;;;;2.17;1.60;;;17.60;99.50;;;;;;4996652;28;20598;-88
2022/08/23 01:27:47;;;;;;;3.53;2.08;;;17.50;99.30;;;;;;4997634;28;20290;-88
2022/08/23 01:30:17;;;;;;;3.67;1.90;;;17.50;99.30;;;;;;4997439;28;20273;-88
2022/08/23 01:32:54;;;;;;;2.28;1.70;;;17.50;99.40;;;;;;4997350;28;20190;-88
2022/08/23 01:35:29;;;;;;;2.72;1.75;;;17.50;99.20;;;;;;5004213;28;20213;-89
2022/08/23 01:37:55;;;;;;;5.47;1.95;;;17.50;99.40;;;;;;4997332;28;20194;-88
2022/08/23 01:40:21;;;;;;;3.88;1.98;;;17.40;99.70;;;;;;4997353;28;20204;-89
2022/08/23 01:42:48;;;;;;;5.82;1.67;;;17.20;99.80;;;;;;4997328;28;20580;-89
2022/08/23 01:45:15;;;;;;;2.88;1.65;;;17.20;99.90;;;;;;5006640;28;20183;-88
2022/08/23 01:47:41;;;;;;;3.53;1.70;;;17.10;99.80;;;;;;5009136;28;20187;-88
2022/08/23 01:50:10;;;;;;;5.47;2.00;;;17.10;99.70;;;;;;4998203;28;20210;-89
2022/08/23 01:52:37;;;;;;;2.20;1.40;;;17.00;99.90;;;;;;4998704;28;20306;-88
2022/08/23 01:55:04;;;;;;;6.25;1.70;;;17.10;99.90;;;;;;5014519;28;20195;-88
2022/08/23 01:57:32;;;;;;;4.72;1.70;;;17.20;99.90;;;;;;5005433;28;20225;-89
2022/08/23 01:59:58;;;;;;;5.28;1.83;;;17.20;99.90;;;;;;4997174;28;20620;-88
2022/08/23 02:02:24;;;;;;;4.80;1.83;;;17.10;99.90;;;;;;5005466;28;20283;-89
2022/08/23 02:04:51;;;;;;;2.50;1.50;;;17.10;99.90;;;;;;5014014;28;20218;-89
2022/08/23 02:07:17;;;;;;;3.28;1.75;;;17.10;99.90;;;;;;4996500;28;20218;-88
2022/08/23 02:09:43;;;;;;;4.95;1.67;;;16.90;99.90;;;;;;5013988;28;20203;-88
2022/08/23 02:12:09;;;;;;;4.63;1.90;;;16.80;99.90;;;;;;5013959;28;20179;-88
2022/08/23 02:14:40;;;;;;;3.20;1.70;;;16.90;99.90;;;;;;4996707;28;20187;-88
2022/08/23 02:17:06;;;;;;;3.53;1.85;;;16.90;99.90;;;;;;5014448;28;20171;-89
2022/08/23 02:19:33;;;;;;;4.78;2.00;;;16.80;99.90;;;;;;4996804;28;20698;-89
2022/08/23 02:21:59;;;;;;;5.28;1.75;;;16.80;99.90;;;;;;4996585;28;20717;-89
2022/08/23 02:24:26;;;;;;;3.92;1.80;;;16.70;99.90;;;;;;5014098;28;20211;-89
2022/08/23 02:26:58;;;;;;;4.53;1.92;;;16.70;99.90;;;;;;5012346;28;20531;-89
2022/08/23 02:29:28;;;;;;;4.05;1.98;;;16.70;99.90;;;;;;4995363;28;20203;-89
2022/08/23 02:31:55;;;;;;;3.65;1.92;;;16.80;99.90;;;;;;4996318;28;20269;-89
2022/08/23 02:34:21;;;;;;;4.28;2.15;;;16.60;99.90;;;;;;5002655;28;20202;-89
2022/08/23 02:36:47;;;;;;;5.10;2.13;;;16.50;99.90;;;;;;5004093;28;20187;-88
2022/08/23 02:39:15;;;;;;;10.23;2.25;;;16.40;99.90;;;;;;5013660;28;20238;-89
2022/08/23 02:41:42;;;;;;;4.47;2.15;;;16.40;99.90;;;;;;5013918;28;20239;-88
2022/08/23 02:44:09;;;;;;;6.13;1.95;;;16.30;99.90;;;;;;4996189;28;20213;-89
2022/08/23 02:46:36;;;;;;;2.90;2.15;;;16.30;99.90;;;;;;4994724;28;20547;-88
2022/08/23 02:49:03;;;;;;;5.82;1.92;;;16.30;99.90;;;;;;5014151;28;20172;-90
2022/08/23 02:51:29;;;;;;;4.13;2.30;;;16.40;99.90;;;;;;5004053;28;20201;-88
2022/08/23 02:53:55;;;;;;;6.28;2.40;;;16.40;99.90;;;;;;5000900;28;20193;-88
2022/08/23 02:56:21;;;;;;;3.47;2.10;;;16.40;99.90;;;;;;5001900;28;20278;-88
2022/08/23 02:58:48;;;;;;;5.35;2.10;;;16.40;99.90;;;;;;4996273;28;20237;-88
2022/08/23 03:01:31;;;;;;;3.70;2.00;;;16.50;99.90;;;;;;4995765;28;20292;-88
2022/08/23 03:03:58;;;;;;;3.33;2.30;;;16.50;99.90;;;;;;4983826;28;20191;-89
2022/08/23 03:06:24;;;;;;;3.22;2.00;;;16.60;99.90;;;;;;4994971;28;20733;-88
2022/08/23 03:08:50;;;;;;;6.00;2.30;;;16.60;99.90;;;;;;5013630;28;20186;-89
2022/08/23 03:11:20;;;;;;;5.43;2.30;;;16.60;99.90;;;;;;4995245;28;20207;-87
2022/08/23 03:13:48;;;;;;;9.38;2.40;;;16.50;99.90;;;;;;5008489;28;20198;-89
2022/08/23 03:16:15;;;;;;;5.93;2.70;;;16.50;99.90;;;;;;4992085;28;20218;-88
2022/08/23 03:18:41;;;;;;;4.05;2.17;;;16.50;99.90;;;;;;4999390;28;20218;-88
2022/08/23 03:21:07;;;;;;;3.80;2.30;;;16.50;99.90;;;;;;4994573;28;20203;-88
2022/08/23 03:23:34;;;;;;;5.80;2.50;;;16.40;99.90;;;;;;5005637;28;20187;-88
2022/08/23 03:26:01;;;;;;;3.17;2.00;;;16.50;99.90;;;;;;5004012;28;20279;-89
2022/08/23 03:28:28;;;;;;;6.35;2.03;;;16.50;99.90;;;;;;4995337;28;20183;-89
2022/08/23 03:30:54;;;;;;;4.10;2.10;;;16.50;99.90;;;;;;5006884;28;20207;-89
2022/08/23 03:33:21;;;;;;;3.67;2.00;;;16.60;99.90;;;;;;4995350;28;20222;-89
2022/08/23 03:35:47;;;;;;;6.53;2.40;;;16.50;99.90;;;;;;4994823;28;20215;-88
2022/08/23 03:38:14;;;;;;;4.80;2.22;;;16.50;99.90;;;;;;4995011;28;20282;-88
2022/08/23 03:40:41;;;;;;;5.00;2.15;;;16.50;99.90;;;;;;4994160;28;20211;-89
2022/08/23 03:43:08;;;;;;;5.10;2.20;;;16.50;99.90;;;;;;4994542;28;20732;-88
2022/08/23 03:45:34;;;;;;;5.05;2.40;;;16.50;99.90;;;;;;4997564;28;20731;-88
2022/08/23 03:48:00;;;;;;;5.22;2.25;;;16.50;99.90;;;;;;4997682;28;20278;-89
2022/08/23 03:50:26;;;;;;;4.63;2.47;;;16.50;99.90;;;;;;4994742;28;20790;-88
2022/08/23 03:52:52;;;;;;;7.97;1.92;;;16.40;99.90;;;;;;4997499;28;20659;-88
2022/08/23 03:55:18;;;;;;;6.20;2.40;;;16.40;99.90;;;;;;5003549;28;20236;-89
2022/08/23 03:57:45;;;;;;;9.00;2.30;;;16.40;99.90;;;;;;4994997;28;20194;-89
2022/08/23 04:00:13;;;;;;;3.58;2.25;;;16.30;99.90;;;;;;5011053;28;20702;-89
2022/08/23 04:02:39;;;;;;;7.45;2.88;;;16.30;99.90;;;;;;4994863;28;20313;-89
2022/08/23 04:05:07;;;;;;;3.15;2.33;;;16.20;99.90;;;;;;4994464;28;20246;-89
2022/08/23 04:07:34;;;;;;;7.88;2.65;;;16.20;99.90;;;;;;5009858;28;20264;-88
2022/08/23 04:10:00;;;;;;;4.38;2.70;;;16.10;99.90;;;;;;4994181;28;20218;-88
2022/08/23 04:12:25;;;;;;;4.57;2.60;;;16.10;99.90;;;;;;4994819;28;20195;-88
2022/08/23 04:14:52;;;;;;;4.88;2.70;;;16.00;99.90;;;;;;4994444;28;20549;-89
2022/08/23 04:17:20;;;;;;;5.88;2.30;;;16.00;99.90;;;;;;4994118;28;20253;-88
2022/08/23 04:19:47;;;;;;;3.95;2.20;;;16.00;99.90;;;;;;4994751;28;20397;-88
2022/08/23 04:22:15;;;;;;;4.07;2.53;;;16.10;99.90;;;;;;5011719;28;20293;-88
2022/08/23 04:24:42;;;;;;;4.75;2.33;;;16.10;99.90;;;;;;5010217;28;20658;-88
2022/08/23 04:27:09;;;;;;;4.35;2.17;;;16.10;99.90;;;;;;4994246;28;20651;-88
2022/08/23 04:29:36;;;;;;;3.58;2.40;;;16.20;99.90;;;;;;4994407;28;20242;-89
2022/08/23 04:32:03;;;;;;;5.82;2.25;;;16.10;99.90;;;;;;5006435;28;20175;-89
2022/08/23 04:34:29;;;;;;;4.72;2.70;;;16.10;99.90;;;;;;4994234;28;20562;-88
2022/08/23 04:36:54;;;;;;;5.30;2.90;;;16.00;99.90;;;;;;4994254;28;20195;-89
2022/08/23 04:39:20;;;;;;;5.97;2.60;;;15.90;99.90;;;;;;5011380;28;20734;-88
2022/08/23 04:44:30;;;;;;;4.00;2.70;;;15.70;99.90;;;;;;5011767;28;20561;-88
2022/08/23 04:46:57;;;;;;;5.70;2.63;;;15.60;99.90;;;;;;5005030;28;20183;-88
2022/08/23 04:49:23;;;;;;;5.15;2.30;;;15.60;99.90;;;;;;4997046;28;20199;-89
2022/08/23 04:51:49;;;;;;;5.63;2.40;;;15.70;99.90;;;;;;5011218;28;20179;-88
2022/08/23 04:54:15;;;;;;;6.03;2.50;;;15.70;99.90;;;;;;5011573;28;20195;-89
2022/08/23 04:56:42;;;;;;;5.13;2.35;;;15.80;99.90;;;;;;5002529;28;20195;-88
2022/08/23 04:59:08;;;;;;;4.97;2.40;;;15.80;99.90;;;;;;5000652;28;20194;-89
2022/08/23 05:01:34;;;;;;;4.50;2.55;;;15.80;99.90;;;;;;4995218;28;20269;-89
2022/08/23 05:04:02;;;;;;;3.97;2.75;;;15.90;99.90;;;;;;4994461;28;20184;-88
2022/08/23 05:06:30;;;;;;;4.00;2.55;;;16.00;99.90;;;;;;4999262;28;20233;-89
2022/08/23 05:08:57;;;;;;;4.65;2.80;;;15.90;99.90;;;;;;5004145;28;20257;-89
2022/08/23 05:11:23;;;;;;;4.05;2.30;;;15.90;99.90;;;;;;4994213;28;20203;-88
2022/08/23 05:13:49;;;;;;;4.25;2.40;;;16.00;99.90;;;;;;4994067;28;20190;-88
2022/08/23 05:16:16;;;;;;;8.30;2.80;;;16.00;99.90;;;;;;4999182;28;20293;-89
2022/08/23 05:18:44;;;;;;;6.57;3.40;;;16.10;99.90;;;;;;4994417;28;20199;-88
2022/08/23 05:21:18;;;;;;;5.85;2.97;;;16.10;99.90;;;;;;4993752;28;20206;-88
2022/08/23 05:23:45;;;;;;;5.88;3.17;;;16.10;99.90;;;;;;4999582;28;20455;-89
2022/08/23 05:26:12;;;;;;;8.82;3.45;;;16.20;99.90;;;;;;4993694;28;20191;-88
2022/08/23 05:28:41;;;;;;;4.47;2.95;;;16.20;99.90;;;;;;4993277;28;20240;-88
2022/08/23 05:31:18;;;;;;;5.32;3.33;;;16.30;99.90;;;;;;4994446;28;20213;-88
2022/08/23 05:33:44;;;;;;;9.38;3.78;;;16.40;99.90;;;;;;4993941;28;20623;-88
2022/08/23 05:36:13;;;;;;;5.43;3.00;;;16.40;99.90;;;;;;4993853;28;20195;-87
2022/08/23 05:38:39;;;;;;;7.38;3.15;;;16.50;99.90;;;;;;4993558;28;20178;-88
2022/08/23 05:41:05;;;;;;;6.18;3.20;;;16.50;99.90;;;;;;4993451;28;20224;-88
2022/08/23 05:43:32;;;;;;;8.43;2.65;;;16.60;99.90;;;;;;4993413;28;20176;-88
2022/08/23 05:46:02;;;;;;;7.55;3.17;;;16.60;99.90;;;;;;5005684;28;20229;-88
2022/08/23 05:48:28;;;;;;;7.80;2.90;;;16.70;99.90;;;;;;5010077;28;20175;-88
2022/08/23 05:50:54;;;;;;;6.03;3.35;;;16.80;99.90;;;;;;5010505;28;20203;-88
2022/08/23 05:53:20;;;;;;;6.32;2.58;;;16.90;99.90;;;;;;5010354;28;20669;-89
2022/08/23 05:55:46;;;;;;;7.13;2.95;;;16.90;99.90;;;;;;5010328;28;20183;-90
2022/08/23 05:58:11;;;;;;;8.82;2.88;;;17.00;99.90;;;;;;5010311;28;20190;-88
2022/08/23 06:00:37;;;;;;;5.57;3.13;;;17.00;99.90;;;;;;5011841;28;20277;-89
2022/08/23 06:03:03;;;;;;;3.80;2.70;;;17.10;99.90;;;;;;5010645;28;20214;-89
2022/08/23 06:05:29;;;;;;;3.60;2.33;;;17.20;99.90;;;;;;4995227;28;20215;-89
2022/08/23 06:07:55;;;;;;;6.15;2.75;;;17.20;99.90;;;;;;4977831;28;20190;-89
2022/08/23 06:10:21;;;;;;;4.72;2.45;;;17.30;99.90;;;;;;4977823;28;20330;-89
2022/08/23 06:12:47;;;;;;;5.63;2.88;;;17.40;99.90;;;;;;4977534;28;20246;-89
2022/08/23 06:15:13;;;;;;;4.60;2.08;;;17.50;99.90;;;;;;4995193;28;20269;-88
2022/08/23 06:17:39;;;;;;;4.95;2.22;;;17.60;99.90;;;;;;4977665;28;20191;-89
2022/08/23 06:20:07;;;;;;;6.63;2.03;;;17.70;99.90;;;;;;5001919;28;20215;-89
2022/08/23 06:22:33;;;;;;;4.78;2.15;;;17.80;99.90;;;;;;4977828;28;20203;-88
2022/08/23 06:24:59;;;;;;;6.55;2.40;;;17.90;99.90;;;;;;4993590;28;20179;-89
2022/08/23 06:27:24;;;;;;;3.53;2.03;;;18.00;99.90;;;;;;5014472;28;20187;-89
2022/08/23 06:29:50;;;;;;;3.92;1.88;;;18.00;99.90;;;;;;4996975;28;20202;-89
2022/08/23 06:32:16;;;;;;;5.35;2.40;;;18.10;99.90;;;;;;4997175;28;20183;-90
2022/08/23 06:34:42;;;;;;;6.43;2.20;;;18.20;99.90;;;;;;4996592;28;20179;-88
2022/08/23 06:37:13;;;;;;;5.82;2.17;;;18.30;99.90;;;;;;4996818;28;20182;-89
2022/08/23 06:39:39;;;;;;;3.55;1.90;;;18.30;99.90;;;;;;4996452;28;20199;-89
2022/08/23 06:42:16;;;;;;;3.65;1.73;;;18.50;99.90;;;;;;4992938;28;20204;-88
2022/08/23 06:44:42;;;;;;;5.07;2.00;;;18.60;99.90;;;;;;4977273;28;20254;-89
2022/08/23 06:47:08;;;;;;;2.97;1.90;;;18.70;99.90;;;;;;4994215;28;20179;-89
2022/08/23 06:49:34;;;;;;;5.32;2.10;;;18.80;99.90;;;;;;4999743;28;20199;-88
2022/08/23 06:52:05;;;;;;;5.80;1.70;;;18.90;99.90;;;;;;5014030;28;20608;-90
2022/08/23 06:54:33;;;;;;;4.47;2.13;;;19.00;99.90;;;;;;5013971;28;20238;-88
2022/08/23 06:57:00;;;;;;;5.32;2.22;;;19.10;99.90;;;;;;4996240;28;20619;-88
2022/08/23 06:59:27;;;;;;;4.65;1.77;;;19.20;99.90;;;;;;5008783;28;20651;-89
2022/08/23 07:01:58;;;;;;;4.55;1.90;;;19.20;99.90;;;;;;5010043;28;20204;-89
2022/08/23 07:04:34;;;;;;;3.58;1.90;;;19.30;99.90;;;;;;4983645;28;20263;-89
2022/08/23 07:07:00;;;;;;;4.88;1.92;;;19.30;99.90;;;;;;4976061;28;20215;-88
2022/08/23 07:09:27;;;;;;;4.07;1.85;;;19.40;99.90;;;;;;4983395;28;20702;-88
2022/08/23 07:11:54;;;;;;;5.95;1.98;;;19.50;99.90;;;;;;4975922;28;20279;-89
2022/08/23 07:14:21;;;;;;;7.07;2.00;;;19.60;99.80;;;;;;4975663;28;20704;-89
2022/08/23 07:17:00;;;;;;;2.22;1.45;;;19.80;99.20;;;;;;4978368;28;20180;-89
2022/08/23 07:19:30;;;;;;;3.30;1.63;;;19.90;99.20;;;;;;5011565;28;20313;-88
2022/08/23 07:21:57;;;;;;;4.50;1.33;;;20.10;98.40;;;;;;4995484;28;20327;-89
2022/08/23 07:24:23;;;;;;;3.53;1.50;;;20.20;98.00;;;;;;4980085;28;20184;-89
2022/08/23 07:26:53;;;;;;;4.57;1.50;;;20.30;97.30;;;;;;4995783;28;20262;-88
2022/08/23 07:29:21;;;;;;;2.72;1.52;;;20.50;97.20;;;;;;5012495;28;20172;-88
2022/08/23 07:31:53;;;;;;;5.32;1.55;;;20.50;97.10;;;;;;4995532;28;20168;-89
2022/08/23 07:34:19;;;;;;;2.70;1.40;;;20.60;96.50;;;;;;5008835;28;20180;-88
2022/08/23 07:36:47;;;;;;;2.95;1.25;;;20.80;96.70;;;;;;4975944;28;20267;-88
2022/08/23 07:39:14;;;;;;;5.20;1.13;;;20.90;96.80;;;;;;4990175;28;20734;-89
2022/08/23 07:41:41;;;;;;;2.55;1.27;;;21.00;96.60;;;;;;4994935;28;20198;-89
2022/08/23 07:44:09;;;;;;;3.53;1.25;;;21.10;96.40;;;;;;4994861;28;20580;-89
2022/08/23 07:46:38;;;;;;;5.45;1.40;;;21.30;96.20;;;;;;4980628;28;20184;-89
2022/08/23 07:49:04;;;;;;;4.50;1.33;;;21.40;96.50;;;;;;4975051;28;20263;-88
2022/08/23 07:51:32;;;;;;;2.33;1.30;;;21.60;96.20;;;;;;4975207;28;20632;-89
2022/08/23 07:54:03;;;;;;;2.95;1.38;;;21.70;96.10;;;;;;5000018;28;20187;-89
2022/08/23 07:56:30;;;;;;;3.38;1.20;;;21.90;96.30;;;;;;4994289;28;20214;-89
2022/08/23 07:58:55;;;;;;;3.72;1.20;;;22.00;95.90;;;;;;4994296;28;20237;-89
2022/08/23 08:01:27;;;;;;;2.85;1.30;;;22.00;95.50;;;;;;4994423;28;20203;-88
2022/08/23 08:03:55;;;;;;;1.58;1.00;;;22.10;95.60;;;;;;4994323;28;20595;-88
2022/08/23 08:06:24;;;;;;;1.38;1.00;;;22.20;95.20;;;;;;4991122;28;20232;-90
2022/08/23 08:08:51;;;;;;;6.15;1.25;;;22.20;94.80;;;;;;4990493;28;20265;-89
2022/08/23 08:11:21;;;;;;;1.38;1.10;;;22.30;94.60;;;;;;4991196;28;20200;-88
2022/08/23 08:13:49;;;;;;;4.63;0.90;;;22.40;94.60;;;;;;4991846;28;20235;-89
2022/08/23 08:16:27;;;;;;;2.97;1.05;;;22.40;94.50;;;;;;4992177;28;20180;-88
2022/08/23 08:18:55;;;;;;;2.35;1.10;;;22.50;94.40;;;;;;4992502;28;20627;-89
2022/08/23 08:21:20;;;;;;;3.22;1.00;;;22.60;94.50;;;;;;4991185;28;20687;-88
2022/08/23 08:23:46;;;;;;;2.30;1.02;;;22.70;93.60;;;;;;4980912;28;20592;-87
2022/08/23 08:26:12;;;;;;;2.05;0.98;;;22.80;93.80;;;;;;4989699;28;20619;-89
2022/08/23 08:28:39;;;;;;;1.52;1.00;;;22.80;93.10;;;;;;4985495;28;20282;-88
2022/08/23 08:31:07;;;;;;;2.67;1.00;;;22.90;93.50;;;;;;4983016;28;20205;-88
2022/08/23 08:33:33;;;;;;;3.55;0.95;;;22.90;93.40;;;;;;4972385;28;20153;-88
2022/08/23 08:36:00;;;;;;;3.45;1.00;;;23.00;93.20;;;;;;4983617;28;20210;-89
2022/08/23 08:38:26;;;;;;;4.57;1.20;;;23.10;93.20;;;;;;4979554;28;20187;-90
2022/08/23 08:41:15;;;;;;;4.80;0.90;;;23.20;93.30;;;;;;4983860;28;20685;-89
2022/08/23 08:44:07;;;;;;;5.00;1.40;;;23.30;92.90;;;;;;4979691;28;20184;-91
2022/08/23 08:46:49;;;;;;;2.35;0.82;;;23.30;92.90;;;;;;4991546;28;20172;-90
2022/08/23 08:49:37;;;;;;;1.73;0.95;;;23.40;92.40;;;;;;4990659;28;20180;-89
2022/08/23 08:52:17;;;;;;;1.50;0.80;;;23.50;92.70;;;;;;4991029;28;20263;-89
2022/08/23 08:54:46;;;;;;;1.85;0.88;;;23.60;92.30;;;;;;4990813;28;20199;-90
2022/08/23 08:57:17;;;;;;;3.38;0.90;;;23.60;92.00;;;;;;4990346;28;20291;-90
2022/08/23 09:00:07;;;;;;;2.67;0.70;;;23.70;91.80;;;;;;4991613;28;20225;-90
2022/08/23 09:02:34;;;;;;;1.88;0.80;;;23.80;92.00;;;;;;4988044;28;20208;-89
2022/08/23 09:05:04;;;;;;;2.35;0.80;;;23.90;92.10;;;;;;4977272;28;20240;-87
2022/08/23 09:07:39;;;;;;;1.38;1.00;;;24.00;91.80;;;;;;4990486;28;20655;-90
2022/08/23 09:10:33;;;;;;;2.10;0.90;;;24.10;91.60;;;;;;4990938;28;20599;-90
2022/08/23 09:13:20;;;;;;;3.22;1.00;;;24.20;91.80;;;;;;4990725;28;20263;-88
2022/08/23 09:16:02;;;;;;;1.20;0.73;;;24.30;91.30;;;;;;4979889;28;20244;-88
2022/08/23 09:18:33;;;;;;;1.20;0.88;;;24.40;91.10;;;;;;4982651;28;20239;-90
2022/08/23 09:21:00;;;;;;;1.67;0.80;;;24.40;90.10;;;;;;4970916;28;20231;-88
2022/08/23 09:23:34;;;;;;;1.25;0.90;;;24.40;90.60;;;;;;4980989;28;20208;-88
2022/08/23 09:26:04;;;;;;;2.45;0.93;;;24.40;90.30;;;;;;4990243;28;20313;-88
2022/08/23 09:28:34;;;;;;;2.35;0.85;;;24.50;90.60;;;;;;4990069;28;20173;-89
2022/08/23 09:31:01;;;;;;;2.42;0.90;;;24.50;88.80;;;;;;4973522;28;20857;-88
2022/08/23 09:33:38;;;;;;;2.15;0.90;;;24.50;89.40;;;;;;4970450;28;20187;-89
2022/08/23 09:36:07;;;;;;;2.05;0.77;;;24.70;90.00;;;;;;4970402;28;20184;-88
2022/08/23 09:38:33;;;;;;;3.58;1.20;;;24.70;90.00;;;;;;4974223;28;20238;-88
2022/08/23 09:40:59;;;;;;;3.75;0.85;;;24.80;89.60;;;;;;4975172;28;20690;-88
2022/08/23 09:43:27;;;;;;;4.30;1.02;;;24.90;89.50;;;;;;4984853;28;20553;-88
2022/08/23 09:45:53;;;;;;;1.67;0.73;;;25.00;89.50;;;;;;4987776;28;20247;-87
2022/08/23 09:48:42;;;;;;;2.30;1.02;;;25.10;89.30;;;;;;4992338;28;20267;-88
2022/08/23 09:51:18;;;;;;;2.25;1.00;;;25.20;88.60;;;;;;4993515;28;20204;-89
2022/08/23 09:54:06;;;;;;;1.77;0.80;;;25.20;88.70;;;;;;4992608;28;20187;-87
2022/08/23 09:56:39;;;;;;;4.03;0.90;;;25.30;88.30;;;;;;4993205;28;20537;-88
2022/08/23 09:59:32;;;;;;;2.72;0.80;;;25.40;88.00;;;;;;4987619;28;20185;-87
2022/08/23 10:01:59;;;;;;;2.28;1.02;;;25.40;88.80;;;;;;4973494;28;20200;-87
2022/08/23 10:04:40;;;;;;;3.38;0.90;;;25.40;86.80;;;;;;4973062;28;20667;-87
2022/08/23 10:07:31;;;;;;;2.10;0.90;;;25.40;86.50;;;;;;4973729;28;20193;-88
2022/08/23 10:10:19;;;;;;;2.15;0.80;;;25.40;86.80;;;;;;4973298;28;20636;-87
2022/08/23 10:12:46;;;;;;;0.95;0.80;;;25.50;88.20;;;;;;4973082;28;20185;-90
2022/08/23 10:15:13;;;;;;;4.63;1.00;;;25.60;86.60;;;;;;4974614;28;20168;-88
2022/08/23 10:17:48;;;;;;;3.97;1.00;;;25.70;85.80;;;;;;4973599;28;20177;-89
2022/08/23 10:20:23;;;;;;;7.85;1.17;;;25.60;86.30;;;;;;4989335;28;20206;-90
2022/08/23 10:23:03;;;;;;;2.90;1.00;;;25.70;86.30;;;;;;4991973;28;20297;-88
2022/08/23 10:25:41;;;;;;;1.38;0.80;;;25.70;85.50;;;;;;4977033;28;20195;-87
2022/08/23 10:31:30;;;;;;;2.88;1.10;;;26.00;84.30;;;;;;4974349;28;20235;-87
2022/08/23 10:34:37;;;;;;;3.28;0.90;;;26.00;85.70;;;;;;4974341;28;20247;-88
2022/08/23 10:37:33;;;;;;;1.25;0.80;;;26.00;84.00;;;;;;4974334;28;20173;-87
2022/08/23 10:40:09;;;;;;;1.77;1.00;;;26.10;84.20;;;;;;4972789;28;20204;-87
2022/08/23 10:42:55;;;;;;;3.50;1.00;;;26.10;85.20;;;;;;4972793;28;20200;-88
2022/08/23 10:45:31;;;;;;;1.67;0.80;;;26.20;84.50;;;;;;4975214;28;20176;-88
2022/08/23 10:48:11;;;;;;;2.05;0.95;;;26.20;83.40;;;;;;4993996;28;20179;-91
2022/08/23 10:51:03;;;;;;;2.05;0.95;;;26.30;83.40;;;;;;4991747;28;20212;-88
2022/08/23 10:53:45;;;;;;;3.55;0.95;;;26.40;83.40;;;;;;4992757;28;20668;-88
2022/08/23 10:56:17;;;;;;;1.73;0.77;;;26.40;82.30;;;;;;4993141;28;20180;-89
2022/08/23 10:58:51;;;;;;;1.85;1.00;;;26.50;83.30;;;;;;4992823;28;20230;-88
2022/08/23 11:01:22;;;;;;;3.90;0.82;;;26.60;82.70;;;;;;4992901;28;20254;-89
2022/08/23 11:04:07;;;;;;;1.60;0.70;;;26.70;82.00;;;;;;4992943;28;20204;-90
2022/08/23 11:06:36;;;;;;;1.75;0.63;;;26.80;81.10;;;;;;4993354;28;20266;-89
2022/08/23 11:09:37;;;;;;;2.88;0.70;;;26.80;80.70;;;;;;4993089;28;20624;-89
2022/08/23 11:12:15;;;;;;;1.38;0.60;;;26.90;81.60;;;;;;4992685;28;20190;-89
2022/08/23 11:15:13;;;;;;;2.30;0.70;;;27.00;81.90;;;;;;4992796;28;20180;-89
2022/08/23 11:17:56;;;;;;;1.13;0.65;;;27.10;80.10;;;;;;4992145;28;20195;-89
2022/08/23 11:20:50;;;;;;;5.00;0.93;;;27.10;79.80;;;;;;4992222;28;20227;-89
2022/08/23 11:23:34;;;;;;;5.80;0.80;;;27.10;80.10;;;;;;4974189;28;20546;-89
2022/08/23 11:26:04;;;;;;;1.88;0.73;;;27.20;81.10;;;;;;4991744;28;20187;-88
2022/08/23 11:28:39;;;;;;;2.75;0.82;;;27.30;79.50;;;;;;4992398;28;20164;-89
2022/08/23 11:31:08;;;;;;;2.58;0.75;;;27.30;80.50;;;;;;4992555;28;20547;-89
2022/08/23 11:33:51;;;;;;;2.90;0.65;;;27.30;80.30;;;;;;4992267;28;20654;-88
2022/08/23 11:36:24;;;;;;;1.95;0.80;;;27.50;79.10;;;;;;4992205;28;20172;-90
2022/08/23 11:38:50;;;;;;;1.23;0.65;;;27.50;79.50;;;;;;4982624;28;20275;-87
2022/08/23 11:41:18;;;;;;;4.43;0.98;;;27.60;79.60;;;;;;4972095;28;20294;-90
2022/08/23 11:43:55;;;;;;;1.85;0.57;;;27.60;78.60;;;;;;4972834;28;20712;-91
2022/08/23 11:46:26;;;;;;;1.80;1.05;;;27.70;79.60;;;;;;4979060;28;20226;-90
2022/08/23 11:49:29;;;;;;;2.78;1.00;;;27.70;77.50;;;;;;4991487;28;20184;-90
2022/08/23 11:52:20;;;;;;;2.72;0.80;;;27.80;78.30;;;;;;4988050;28;20196;-89
2022/08/23 11:55:06;;;;;;;2.17;0.82;;;27.90;76.80;;;;;;4992115;28;20191;-90
2022/08/23 11:57:50;;;;;;;5.53;0.90;;;27.90;77.00;;;;;;4987677;28;20290;-89
2022/08/23 12:00:23;;;;;;;2.05;0.75;;;27.90;76.70;;;;;;4991454;28;20667;-87
2022/08/23 12:03:00;;;;;;;2.47;0.50;;;28.00;76.10;;;;;;4991011;28;20203;-89
2022/08/23 12:05:32;;;;;;;5.07;0.88;;;28.10;76.20;;;;;;4991584;28;20223;-90
2022/08/23 12:08:01;;;;;;;7.88;1.25;;;28.00;74.90;;;;;;4991949;28;20176;-89
2022/08/23 12:10:42;;;;;;;2.45;0.80;;;27.90;75.20;;;;;;4991845;28;20230;-89
2022/08/23 12:13:21;;;;;;;2.53;0.90;;;28.00;76.30;;;;;;4991596;28;20246;-88
2022/08/23 12:16:12;;;;;;;4.18;0.98;;;28.00;76.40;;;;;;4991984;28;20175;-89
2022/08/23 12:18:54;;;;;;;3.13;0.70;;;28.10;76.20;;;;;;4991751;28;20587;-88
2022/08/23 12:21:33;;;;;;;1.38;0.70;;;28.20;75.80;;;;;;4992004;28;20199;-89
2022/08/23 12:24:12;;;;;;;0.90;0.60;;;28.20;75.10;;;;;;4991968;28;20678;-89
2022/08/23 12:26:40;;;;;;;2.38;1.00;;;28.30;74.70;;;;;;4992594;28;20178;-88
2022/08/23 12:29:32;;;;;;;4.88;0.65;;;28.30;74.20;;;;;;4991684;28;20643;-88
2022/08/23 12:32:23;;;;;;;2.10;0.82;;;28.40;74.90;;;;;;4991564;28;20183;-89
2022/08/23 12:35:02;;;;;;;1.20;0.63;;;28.50;74.20;;;;;;4993049;28;20160;-88
2022/08/23 12:37:44;;;;;;;1.08;0.70;;;28.50;74.30;;;;;;4991397;28;20240;-88
2022/08/23 12:40:21;;;;;;;2.42;0.90;;;28.50;73.30;;;;;;4990936;28;20195;-88
2022/08/23 12:42:50;;;;;;;2.00;0.93;;;28.50;72.30;;;;;;4991658;28;20254;-88
2022/08/23 12:45:17;;;;;;;2.92;0.93;;;28.70;74.20;;;;;;4990998;28;20564;-89
2022/08/23 12:47:54;;;;;;;5.30;0.93;;;28.70;73.20;;;;;;4991333;28;20180;-88
2022/08/23 12:50:31;;;;;;;1.65;0.70;;;28.90;72.30;;;;;;4990998;28;20206;-88
2022/08/23 12:53:04;;;;;;;3.63;1.35;;;28.70;71.20;;;;;;4990832;28;20175;-88
2022/08/23 12:55:40;;;;;;;2.92;0.80;;;28.80;72.30;;;;;;4990541;28;20179;-88
2022/08/23 12:58:09;;;;;;;2.05;0.80;;;28.90;72.00;;;;;;4990915;28;20294;-87
2022/08/23 13:00:41;;;;;;;3.92;0.93;;;28.90;72.30;;;;;;4975093;28;20788;-88
2022/08/23 13:03:33;;;;;;;1.42;0.70;;;29.00;72.40;;;;;;4990658;28;20207;-89
2022/08/23 13:06:09;;;;;;;2.15;0.75;;;29.00;72.10;;;;;;4990892;28;20219;-88
2022/08/23 13:08:44;;;;;;;4.70;0.90;;;29.10;72.50;;;;;;4990899;28;20195;-89
2022/08/23 13:11:12;;;;;;;1.67;0.80;;;29.10;70.70;;;;;;4991202;28;20700;-89
2022/08/23 13:13:40;;;;;;;1.50;0.90;;;29.10;70.70;;;;;;4993549;28;20187;-88
2022/08/23 13:16:35;;;;;;;1.85;0.90;;;29.10;70.80;;;;;;4993202;28;20176;-87
2022/08/23 13:19:24;;;;;;;1.73;0.70;;;29.30;71.00;;;;;;4976026;28;20251;-89
2022/08/23 13:22:29;;;;;;;1.98;0.85;;;29.30;70.80;;;;;;4975524;28;20287;-88